createdAt,value
2023-05-06T00:00:02.406Z,428.00
2023-05-06T00:01:02.400Z,430.00
2023-05-06T00:02:02.412Z,433.00
2023-05-06T00:03:02.484Z,433.00
2023-05-06T00:04:02.575Z,433.00
2023-05-06T00:05:02.431Z,432.00
2023-05-06T00:06:02.377Z,432.00
2023-05-06T00:07:02.402Z,433.00
2023-05-06T00:08:02.412Z,430.00
2023-05-06T00:09:02.405Z,430.00
2023-05-06T00:10:02.391Z,432.00
2023-05-06T00:11:02.378Z,432.00
2023-05-06T00:12:02.384Z,434.00
2023-05-06T00:13:02.369Z,437.00
2023-05-06T00:14:02.325Z,438.00
2023-05-06T00:15:02.301Z,436.00
2023-05-06T00:16:02.385Z,441.00
2023-05-06T00:17:02.321Z,443.00
2023-05-06T00:18:02.351Z,450.00
2023-05-06T00:19:02.298Z,438.00
2023-05-06T00:20:02.288Z,444.00
2023-05-06T00:21:02.279Z,439.00
2023-05-06T00:22:02.358Z,438.00
2023-05-06T00:23:02.279Z,439.00
2023-05-06T00:24:02.267Z,439.00
2023-05-06T00:25:02.310Z,435.00
2023-05-06T00:26:02.263Z,438.00
2023-05-06T00:27:02.307Z,435.00
2023-05-06T00:28:02.240Z,432.00
2023-05-06T00:29:02.309Z,433.00
2023-05-06T00:30:02.266Z,432.00
2023-05-06T00:31:02.227Z,436.00
2023-05-06T00:32:02.370Z,440.00
2023-05-06T00:33:02.341Z,441.00
2023-05-06T00:34:02.374Z,441.00
2023-05-06T00:35:02.486Z,444.00
2023-05-06T00:36:02.497Z,444.00
2023-05-06T00:37:02.600Z,447.00
2023-05-06T00:38:02.597Z,446.00
2023-05-06T00:39:02.644Z,443.00
2023-05-06T00:40:02.631Z,452.00
2023-05-06T00:41:02.624Z,452.00
2023-05-06T00:42:02.729Z,448.00
2023-05-06T00:43:02.749Z,446.00
2023-05-06T00:44:02.645Z,448.00
2023-05-06T00:45:02.673Z,445.00
2023-05-06T00:46:02.681Z,446.00
2023-05-06T00:47:02.765Z,445.00
2023-05-06T00:48:02.789Z,446.00
2023-05-06T00:49:02.637Z,446.00
2023-05-06T00:50:02.713Z,442.00
2023-05-06T00:51:02.659Z,440.00
2023-05-06T00:52:02.675Z,440.00
2023-05-06T00:53:02.675Z,440.00
2023-05-06T00:54:02.699Z,441.00
2023-05-06T00:55:02.734Z,442.00
2023-05-06T00:56:02.733Z,441.00
2023-05-06T00:57:02.843Z,442.00
2023-05-06T00:58:02.847Z,445.00
2023-05-06T00:59:02.909Z,446.00
2023-05-06T01:00:02.921Z,445.00
2023-05-06T01:01:02.878Z,446.00
2023-05-06T01:02:03.021Z,446.00
2023-05-06T01:03:02.940Z,447.00
2023-05-06T01:04:03.018Z,450.00
2023-05-06T01:05:03.005Z,448.00
2023-05-06T01:06:03.076Z,443.00
2023-05-06T01:07:03.063Z,444.00
2023-05-06T01:08:03.056Z,442.00
2023-05-06T01:09:03.127Z,442.00
2023-05-06T01:10:03.196Z,444.00
2023-05-06T01:11:03.197Z,445.00
2023-05-06T01:12:03.262Z,442.00
2023-05-06T01:13:03.491Z,443.00
2023-05-06T01:14:03.390Z,442.00
2023-05-06T01:15:03.479Z,443.00
2023-05-06T01:16:03.426Z,440.00
2023-05-06T01:17:03.517Z,445.00
2023-05-06T01:18:03.546Z,444.00
2023-05-06T01:19:03.532Z,441.00
2023-05-06T01:20:03.529Z,443.00
2023-05-06T01:21:03.583Z,439.00
2023-05-06T01:22:03.647Z,443.00
2023-05-06T01:23:03.640Z,441.00
2023-05-06T01:24:03.661Z,441.00
2023-05-06T01:25:03.674Z,442.00
2023-05-06T01:26:03.736Z,440.00
2023-05-06T01:27:03.728Z,438.00
2023-05-06T01:28:03.787Z,437.00
2023-05-06T01:29:03.844Z,439.00
2023-05-06T01:30:03.940Z,438.00
2023-05-06T01:31:03.986Z,438.00
2023-05-06T01:32:03.910Z,440.00
2023-05-06T01:33:03.995Z,440.00
2023-05-06T01:34:04.044Z,438.00
2023-05-06T01:35:04.024Z,445.00
2023-05-06T01:36:04.121Z,452.00
2023-05-06T01:37:04.169Z,457.00
2023-05-06T01:38:04.228Z,451.00
2023-05-06T01:39:04.224Z,451.00
2023-05-06T01:40:04.289Z,450.00
2023-05-06T01:41:04.342Z,457.00
2023-05-06T01:42:04.487Z,453.00
2023-05-06T01:43:04.432Z,456.00
2023-05-06T01:44:04.549Z,431.00
2023-05-06T01:45:04.481Z,454.00
2023-05-06T01:46:04.588Z,457.00
2023-05-06T01:47:04.587Z,456.00
2023-05-06T01:48:04.640Z,462.00
2023-05-06T01:49:04.626Z,463.00
2023-05-06T01:50:04.663Z,454.00
2023-05-06T01:51:04.678Z,452.00
2023-05-06T01:52:04.759Z,451.00
2023-05-06T01:53:04.778Z,454.00
2023-05-06T01:54:04.876Z,461.00
2023-05-06T01:55:05.049Z,459.00
2023-05-06T01:56:04.977Z,460.00
2023-05-06T01:57:05.003Z,456.00
2023-05-06T01:58:05.103Z,454.00
2023-05-06T01:59:05.130Z,450.00
2023-05-06T02:00:05.222Z,455.00
2023-05-06T02:01:05.261Z,455.00
2023-05-06T02:02:05.252Z,456.00
2023-05-06T02:03:05.413Z,455.00
2023-05-06T02:04:05.387Z,456.00
2023-05-06T02:05:05.351Z,454.00
2023-05-06T02:06:05.423Z,454.00
2023-05-06T02:07:05.523Z,452.00
2023-05-06T02:08:05.512Z,450.00
2023-05-06T02:09:05.534Z,449.00
2023-05-06T02:10:05.645Z,450.00
2023-05-06T02:11:05.662Z,456.00
2023-05-06T02:12:05.823Z,458.00
2023-05-06T02:13:05.905Z,461.00
2023-05-06T02:14:05.815Z,456.00
2023-05-06T02:15:05.799Z,459.00
2023-05-06T02:16:05.819Z,463.00
2023-05-06T02:17:05.842Z,461.00
2023-05-06T02:18:06.550Z,461.00
2023-05-06T02:19:05.832Z,455.00
2023-05-06T02:20:05.859Z,460.00
2023-05-06T02:21:05.836Z,462.00
2023-05-06T02:22:05.916Z,464.00
2023-05-06T02:23:05.967Z,465.00
2023-05-06T02:24:05.974Z,464.00
2023-05-06T02:25:06.003Z,462.00
2023-05-06T02:26:06.002Z,459.00
2023-05-06T02:27:06.109Z,457.00
2023-05-06T02:28:06.127Z,458.00
2023-05-06T02:29:06.126Z,458.00
2023-05-06T02:30:06.211Z,459.00
2023-05-06T02:31:06.335Z,456.00
2023-05-06T02:32:06.274Z,455.00
2023-05-06T02:33:06.348Z,455.00
2023-05-06T02:34:06.341Z,454.00
2023-05-06T02:35:06.542Z,451.00
2023-05-06T02:36:06.432Z,446.00
2023-05-06T02:37:06.550Z,449.00
2023-05-06T02:38:06.512Z,453.00
2023-05-06T02:39:06.572Z,451.00
2023-05-06T02:40:06.666Z,447.00
2023-05-06T02:41:06.636Z,450.00
2023-05-06T02:42:06.781Z,448.00
2023-05-06T02:43:06.744Z,449.00
2023-05-06T02:44:06.786Z,453.00
2023-05-06T02:45:06.798Z,454.00
2023-05-06T02:46:06.803Z,457.00
2023-05-06T02:47:06.771Z,454.00
2023-05-06T02:48:06.813Z,452.00
2023-05-06T02:49:06.914Z,453.00
2023-05-06T02:50:06.907Z,454.00
2023-05-06T02:51:07.000Z,455.00
2023-05-06T02:52:06.960Z,458.00
2023-05-06T02:53:07.070Z,461.00
2023-05-06T02:54:07.032Z,459.00
2023-05-06T02:55:07.157Z,461.00
2023-05-06T02:56:07.040Z,459.00
2023-05-06T02:57:07.113Z,458.00
2023-05-06T02:58:07.091Z,451.00
2023-05-06T02:59:07.129Z,448.00
2023-05-06T03:00:07.132Z,449.00
2023-05-06T03:01:07.169Z,450.00
2023-05-06T03:02:07.133Z,451.00
2023-05-06T03:03:07.205Z,451.00
2023-05-06T03:04:07.173Z,451.00
2023-05-06T03:05:07.199Z,452.00
2023-05-06T03:06:07.158Z,448.00
2023-05-06T03:07:07.259Z,449.00
2023-05-06T03:08:07.224Z,454.00
2023-05-06T03:09:07.237Z,450.00
2023-05-06T03:10:07.269Z,450.00
2023-05-06T03:11:08.288Z,456.00
2023-05-06T03:12:07.393Z,453.00
2023-05-06T03:13:07.387Z,451.00
2023-05-06T03:14:07.372Z,453.00
2023-05-06T03:15:07.552Z,456.00
2023-05-06T03:16:07.480Z,456.00
2023-05-06T03:17:07.535Z,457.00
2023-05-06T03:18:07.559Z,455.00
2023-05-06T03:19:07.543Z,451.00
2023-05-06T03:20:08.219Z,455.00
2023-05-06T03:21:07.694Z,453.00
2023-05-06T03:22:07.633Z,451.00
2023-05-06T03:23:07.782Z,453.00
2023-05-06T03:24:07.649Z,454.00
2023-05-06T03:25:07.908Z,453.00
2023-05-06T03:26:07.699Z,453.00
2023-05-06T03:27:07.720Z,457.00
2023-05-06T03:28:07.719Z,466.00
2023-05-06T03:29:07.786Z,459.00
2023-05-06T03:30:07.731Z,463.00
2023-05-06T03:31:07.784Z,456.00
2023-05-06T03:32:07.810Z,454.00
2023-05-06T03:33:07.899Z,451.00
2023-05-06T03:34:07.852Z,451.00
2023-05-06T03:35:07.977Z,449.00
2023-05-06T03:36:07.887Z,453.00
2023-05-06T03:37:07.826Z,452.00
2023-05-06T03:38:07.849Z,454.00
2023-05-06T03:39:08.537Z,452.00
2023-05-06T03:40:07.883Z,452.00
2023-05-06T03:41:07.878Z,452.00
2023-05-06T03:42:09.419Z,448.00
2023-05-06T03:43:07.886Z,448.00
2023-05-06T03:44:08.965Z,448.00
2023-05-06T03:45:08.380Z,450.00
2023-05-06T03:46:08.040Z,451.00
2023-05-06T03:47:08.002Z,453.00
2023-05-06T03:48:08.063Z,457.00
2023-05-06T03:49:08.056Z,454.00
2023-05-06T03:50:08.108Z,456.00
2023-05-06T03:51:08.079Z,455.00
2023-05-06T03:52:08.102Z,456.00
2023-05-06T03:53:08.099Z,458.00
2023-05-06T03:54:08.155Z,463.00
2023-05-06T03:55:08.381Z,462.00
2023-05-06T03:56:08.148Z,459.00
2023-05-06T03:57:08.219Z,455.00
2023-05-06T03:58:08.206Z,456.00
2023-05-06T03:59:08.228Z,458.00
2023-05-06T04:00:08.221Z,456.00
2023-05-06T04:01:08.225Z,456.00
2023-05-06T04:02:08.309Z,452.00
2023-05-06T04:03:08.271Z,449.00
2023-05-06T04:04:08.353Z,449.00
2023-05-06T04:05:08.530Z,452.00
2023-05-06T04:06:08.287Z,451.00
2023-05-06T04:07:08.331Z,447.00
2023-05-06T04:08:08.317Z,449.00
2023-05-06T04:09:08.376Z,459.00
2023-05-06T04:10:08.373Z,462.00
2023-05-06T04:11:08.491Z,449.00
2023-05-06T04:12:08.512Z,459.00
2023-05-06T04:13:08.632Z,460.00
2023-05-06T04:14:08.590Z,462.00
2023-05-06T04:15:08.836Z,460.00
2023-05-06T04:16:08.798Z,448.00
2023-05-06T04:17:08.778Z,460.00
2023-05-06T04:18:08.901Z,456.00
2023-05-06T04:19:08.902Z,469.00
2023-05-06T04:20:08.966Z,471.00
2023-05-06T04:21:09.027Z,472.00
2023-05-06T04:22:09.073Z,465.00
2023-05-06T04:23:09.109Z,466.00
2023-05-06T04:24:09.221Z,472.00
2023-05-06T04:25:09.480Z,473.00
2023-05-06T04:26:09.272Z,469.00
2023-05-06T04:27:09.372Z,467.00
2023-05-06T04:28:09.386Z,467.00
2023-05-06T04:29:09.417Z,466.00
2023-05-06T04:30:09.503Z,473.00
2023-05-06T04:31:09.499Z,466.00
2023-05-06T04:32:09.636Z,457.00
2023-05-06T04:33:09.647Z,468.00
2023-05-06T04:34:09.654Z,471.00
2023-05-06T04:35:09.895Z,465.00
2023-05-06T04:36:09.704Z,470.00
2023-05-06T04:37:09.754Z,469.00
2023-05-06T04:38:09.851Z,465.00
2023-05-06T04:39:09.884Z,463.00
2023-05-06T04:40:09.886Z,465.00
2023-05-06T04:41:09.951Z,465.00
2023-05-06T04:42:09.966Z,463.00
2023-05-06T04:43:09.961Z,459.00
2023-05-06T04:44:10.060Z,458.00
2023-05-06T04:45:10.344Z,458.00
2023-05-06T04:46:10.244Z,464.00
2023-05-06T04:47:10.208Z,462.00
2023-05-06T04:48:10.345Z,457.00
2023-05-06T04:49:11.935Z,460.00
2023-05-06T04:50:10.338Z,455.00
2023-05-06T04:51:10.357Z,455.00
2023-05-06T04:52:10.398Z,454.00
2023-05-06T04:53:10.384Z,457.00
2023-05-06T04:54:10.364Z,459.00
2023-05-06T04:55:10.690Z,458.00
2023-05-06T04:56:10.456Z,457.00
2023-05-06T04:57:10.432Z,460.00
2023-05-06T04:58:10.384Z,455.00
2023-05-06T04:59:10.440Z,459.00
2023-05-06T05:00:10.674Z,462.00
2023-05-06T05:01:10.457Z,462.00
2023-05-06T05:02:10.524Z,453.00
2023-05-06T05:03:10.613Z,457.00
2023-05-06T05:04:10.526Z,459.00
2023-05-06T05:05:10.753Z,461.00
2023-05-06T05:06:10.575Z,460.00
2023-05-06T05:07:11.058Z,462.00
2023-05-06T05:08:10.661Z,465.00
2023-05-06T05:09:10.665Z,476.00
2023-05-06T05:10:10.655Z,468.00
2023-05-06T05:11:10.718Z,471.00
2023-05-06T05:12:10.724Z,468.00
2023-05-06T05:13:10.766Z,469.00
2023-05-06T05:14:10.743Z,466.00
2023-05-06T05:15:11.272Z,463.00
2023-05-06T05:16:10.830Z,461.00
2023-05-06T05:17:10.900Z,465.00
2023-05-06T05:18:10.970Z,462.00
2023-05-06T05:19:10.999Z,463.00
2023-05-06T05:20:11.038Z,463.00
2023-05-06T05:21:11.028Z,448.00
2023-05-06T05:22:11.563Z,457.00
2023-05-06T05:23:11.157Z,451.00
2023-05-06T05:24:11.066Z,460.00
2023-05-06T05:25:11.270Z,451.00
2023-05-06T05:26:11.188Z,453.00
2023-05-06T05:27:11.210Z,453.00
2023-05-06T05:28:11.258Z,455.00
2023-05-06T05:29:11.315Z,451.00
2023-05-06T05:30:11.375Z,454.00
2023-05-06T05:31:11.397Z,458.00
2023-05-06T05:32:11.448Z,457.00
2023-05-06T05:33:11.612Z,456.00
2023-05-06T05:34:11.556Z,456.00
2023-05-06T05:35:11.795Z,451.00
2023-05-06T05:36:11.601Z,439.00
2023-05-06T05:37:11.587Z,443.00
2023-05-06T05:38:11.629Z,446.00
2023-05-06T05:39:11.684Z,446.00
2023-05-06T05:40:11.763Z,444.00
2023-05-06T05:41:11.829Z,446.00
2023-05-06T05:42:11.898Z,439.00
2023-05-06T05:43:11.925Z,438.00
2023-05-06T05:44:11.971Z,444.00
2023-05-06T05:45:11.984Z,447.00
2023-05-06T05:46:12.122Z,448.00
2023-05-06T05:47:12.098Z,447.00
2023-05-06T05:48:12.067Z,451.00
2023-05-06T05:49:12.016Z,451.00
2023-05-06T05:50:12.067Z,448.00
2023-05-06T05:51:12.140Z,449.00
2023-05-06T05:52:12.383Z,447.00
2023-05-06T05:53:12.308Z,462.00
2023-05-06T05:54:12.300Z,448.00
2023-05-06T05:55:12.401Z,444.00
2023-05-06T05:56:12.483Z,451.00
2023-05-06T05:57:12.593Z,439.00
2023-05-06T05:58:12.584Z,438.00
2023-05-06T05:59:12.609Z,420.00
2023-05-06T06:00:13.761Z,461.00
2023-05-06T06:01:12.613Z,439.00
2023-05-06T06:02:12.655Z,438.00
2023-05-06T06:03:12.735Z,442.00
2023-05-06T06:04:12.763Z,444.00
2023-05-06T06:05:12.677Z,459.00
2023-05-06T06:06:12.695Z,450.00
2023-05-06T06:07:12.698Z,454.00
2023-05-06T06:08:12.718Z,450.00
2023-05-06T06:09:12.720Z,453.00
2023-05-06T06:10:12.719Z,448.00
2023-05-06T06:11:12.793Z,449.00
2023-05-06T06:12:12.789Z,449.00
2023-05-06T06:13:12.803Z,445.00
2023-05-06T06:14:12.832Z,442.00
2023-05-06T06:15:12.811Z,443.00
2023-05-06T06:16:13.679Z,442.00
2023-05-06T06:17:12.766Z,453.00
2023-05-06T06:18:12.820Z,453.00
2023-05-06T06:19:12.849Z,454.00
2023-05-06T06:20:14.734Z,449.00
2023-05-06T06:21:12.849Z,458.00
2023-05-06T06:22:12.899Z,454.00
2023-05-06T06:23:12.922Z,452.00
2023-05-06T06:24:13.013Z,451.00
2023-05-06T06:25:12.976Z,450.00
2023-05-06T06:26:13.032Z,455.00
2023-05-06T06:27:13.133Z,454.00
2023-05-06T06:28:13.100Z,451.00
2023-05-06T06:29:13.150Z,466.00
2023-05-06T06:30:13.191Z,452.00
2023-05-06T06:31:13.204Z,451.00
2023-05-06T06:32:13.372Z,453.00
2023-05-06T06:33:13.226Z,448.00
2023-05-06T06:34:13.195Z,446.00
2023-05-06T06:35:13.233Z,446.00
2023-05-06T06:36:13.233Z,446.00
2023-05-06T06:37:13.290Z,446.00
2023-05-06T06:38:13.299Z,444.00
2023-05-06T06:39:13.320Z,454.00
2023-05-06T06:40:13.345Z,449.00
2023-05-06T06:41:13.404Z,451.00
2023-05-06T06:42:13.456Z,445.00
2023-05-06T06:43:13.450Z,454.00
2023-05-06T06:44:13.498Z,437.00
2023-05-06T06:45:13.557Z,428.00
2023-05-06T06:46:13.668Z,447.00
2023-05-06T06:47:13.784Z,441.00
2023-05-06T06:48:13.787Z,444.00
2023-05-06T06:49:13.924Z,438.00
2023-05-06T06:50:13.920Z,434.00
2023-05-06T06:51:14.023Z,433.00
2023-05-06T06:52:14.043Z,463.00
2023-05-06T06:53:14.060Z,440.00
2023-05-06T06:54:14.117Z,440.00
2023-05-06T06:55:14.140Z,436.00
2023-05-06T06:56:14.185Z,444.00
2023-05-06T06:57:14.262Z,438.00
2023-05-06T06:58:14.238Z,432.00
2023-05-06T06:59:14.287Z,435.00
2023-05-06T07:00:14.368Z,411.00
2023-05-06T07:01:14.420Z,431.00
2023-05-06T07:02:14.468Z,436.00
2023-05-06T07:03:14.504Z,445.00
2023-05-06T07:04:14.484Z,453.00
2023-05-06T07:05:14.417Z,428.00
2023-05-06T07:06:14.510Z,511.00
2023-05-06T07:07:14.568Z,431.00
2023-05-06T07:08:14.535Z,430.00
2023-05-06T07:09:14.648Z,437.00
2023-05-06T07:10:14.575Z,431.00
2023-05-06T07:11:14.558Z,427.00
2023-05-06T07:12:14.627Z,436.00
2023-05-06T07:13:14.602Z,432.00
2023-05-06T07:14:14.655Z,423.00
2023-05-06T07:15:14.709Z,422.00
2023-05-06T07:16:14.704Z,435.00
2023-05-06T07:17:14.817Z,419.00
2023-05-06T07:18:14.728Z,426.00
2023-05-06T07:19:14.748Z,429.00
2023-05-06T07:20:14.788Z,429.00
2023-05-06T07:21:14.794Z,427.00
2023-05-06T07:22:14.859Z,426.00
2023-05-06T07:23:14.880Z,427.00
2023-05-06T07:24:14.817Z,426.00
2023-05-06T07:25:14.824Z,441.00
2023-05-06T07:26:14.819Z,426.00
2023-05-06T07:27:14.845Z,435.00
2023-05-06T07:28:14.856Z,429.00
2023-05-06T07:29:14.903Z,424.00
2023-05-06T07:30:15.669Z,482.00
2023-05-06T07:31:16.105Z,453.00
2023-05-06T07:32:15.063Z,425.00
2023-05-06T07:33:15.118Z,431.00
2023-05-06T07:34:15.132Z,420.00
2023-05-06T07:35:15.139Z,419.00
2023-05-06T07:36:15.175Z,453.00
2023-05-06T07:37:15.273Z,424.00
2023-05-06T07:38:15.279Z,429.00
2023-05-06T07:39:15.415Z,430.00
2023-05-06T07:40:15.317Z,402.00
2023-05-06T07:41:15.390Z,426.00
2023-05-06T07:42:15.441Z,448.00
2023-05-06T07:43:15.506Z,429.00
2023-05-06T07:44:15.501Z,433.00
2023-05-06T07:45:15.511Z,425.00
2023-05-06T07:46:15.672Z,421.00
2023-05-06T07:47:15.698Z,407.00
2023-05-06T07:48:16.529Z,419.00
2023-05-06T07:49:15.707Z,425.00
2023-05-06T07:50:15.760Z,424.00
2023-05-06T07:51:15.775Z,427.00
2023-05-06T07:52:15.793Z,433.00
2023-05-06T07:53:15.784Z,449.00
2023-05-06T07:54:15.786Z,428.00
2023-05-06T07:55:15.876Z,431.00
2023-05-06T07:56:15.837Z,431.00
2023-05-06T07:57:15.913Z,428.00
2023-05-06T07:58:15.930Z,421.00
2023-05-06T07:59:15.956Z,446.00
2023-05-06T08:00:15.985Z,427.00
2023-05-06T08:01:15.990Z,431.00
2023-05-06T08:02:16.060Z,435.00
2023-05-06T08:03:16.205Z,460.00
2023-05-06T08:04:16.104Z,433.00
2023-05-06T08:05:16.065Z,431.00
2023-05-06T08:06:16.114Z,421.00
2023-05-06T08:07:16.172Z,419.00
2023-05-06T08:08:16.150Z,425.00
2023-05-06T08:09:22.589Z,429.00
2023-05-06T08:10:17.201Z,432.00
2023-05-06T08:11:18.774Z,449.00
2023-05-06T08:12:16.230Z,413.00
2023-05-06T08:13:16.340Z,424.00
2023-05-06T08:14:16.157Z,423.00
2023-05-06T08:15:16.166Z,424.00
2023-05-06T08:16:16.247Z,434.00
2023-05-06T08:17:16.184Z,433.00
2023-05-06T08:18:22.357Z,435.00
2023-05-06T08:19:17.145Z,433.00
2023-05-06T08:20:16.119Z,438.00
2023-05-06T08:21:16.177Z,435.00
2023-05-06T08:22:16.144Z,428.00
2023-05-06T08:23:16.229Z,420.00
2023-05-06T08:24:16.108Z,422.00
2023-05-06T08:25:16.118Z,422.00
2023-05-06T08:26:16.110Z,425.00
2023-05-06T08:27:16.125Z,425.00
2023-05-06T08:28:16.078Z,441.00
2023-05-06T08:29:16.124Z,437.00
2023-05-06T08:30:16.062Z,414.00
2023-05-06T08:31:16.130Z,426.00
2023-05-06T08:32:16.120Z,404.00
2023-05-06T08:33:16.101Z,419.00
2023-05-06T08:34:17.144Z,417.00
2023-05-06T08:35:16.207Z,396.00
2023-05-06T08:36:16.229Z,420.00
2023-05-06T08:37:16.356Z,421.00
2023-05-06T08:38:16.311Z,420.00
2023-05-06T08:39:16.330Z,423.00
2023-05-06T08:40:16.333Z,426.00
2023-05-06T08:41:16.332Z,444.00
2023-05-06T08:42:16.362Z,428.00
2023-05-06T08:43:16.422Z,417.00
2023-05-06T08:44:16.381Z,418.00
2023-05-06T08:45:16.411Z,395.00
2023-05-06T08:46:16.492Z,411.00
2023-05-06T08:47:16.422Z,403.00
2023-05-06T08:48:16.462Z,422.00
2023-05-06T08:49:16.472Z,448.00
2023-05-06T08:50:16.511Z,415.00
2023-05-06T08:51:16.594Z,419.00
2023-05-06T08:52:16.603Z,418.00
2023-05-06T08:53:16.686Z,418.00
2023-05-06T08:54:16.672Z,419.00
2023-05-06T08:55:16.725Z,431.00
2023-05-06T08:56:16.889Z,427.00
2023-05-06T08:57:16.841Z,418.00
2023-05-06T08:58:16.915Z,425.00
2023-05-06T08:59:16.841Z,447.00
2023-05-06T09:00:16.845Z,438.00
2023-05-06T09:01:16.876Z,420.00
2023-05-06T09:02:16.972Z,422.00
2023-05-06T09:03:16.992Z,459.00
2023-05-06T09:04:16.974Z,415.00
2023-05-06T09:05:17.003Z,416.00
2023-05-06T09:06:17.050Z,418.00
2023-05-06T09:07:17.093Z,442.00
2023-05-06T09:08:17.117Z,419.00
2023-05-06T09:09:17.121Z,402.00
2023-05-06T09:10:17.240Z,412.00
2023-05-06T09:11:17.260Z,425.00
2023-05-06T09:12:17.256Z,410.00
2023-05-06T09:13:17.371Z,416.00
2023-05-06T09:14:17.359Z,419.00
2023-05-06T09:15:17.418Z,335.00
2023-05-06T09:16:17.490Z,432.00
2023-05-06T09:17:17.504Z,438.00
2023-05-06T09:18:17.573Z,467.00
2023-05-06T09:19:17.609Z,422.00
2023-05-06T09:20:17.596Z,435.00
2023-05-06T09:21:17.651Z,413.00
2023-05-06T09:22:17.653Z,414.00
2023-05-06T09:23:17.721Z,410.00
2023-05-06T09:24:17.861Z,414.00
2023-05-06T09:25:17.785Z,419.00
2023-05-06T09:26:17.800Z,422.00
2023-05-06T09:27:17.862Z,414.00
2023-05-06T09:28:17.873Z,423.00
2023-05-06T09:29:17.915Z,426.00
2023-05-06T09:30:17.881Z,418.00
2023-05-06T09:31:17.887Z,420.00
2023-05-06T09:32:17.885Z,431.00
2023-05-06T09:33:17.895Z,439.00
2023-05-06T09:34:17.853Z,418.00
2023-05-06T09:35:17.888Z,435.00
2023-05-06T09:36:17.904Z,422.00
2023-05-06T09:37:17.855Z,427.00
2023-05-06T09:38:17.822Z,435.00
2023-05-06T09:39:17.871Z,436.00
2023-05-06T09:40:17.839Z,427.00
2023-05-06T09:41:17.845Z,421.00
2023-05-06T09:42:17.803Z,427.00
2023-05-06T09:43:17.829Z,426.00
2023-05-06T09:44:17.794Z,425.00
2023-05-06T09:45:17.838Z,422.00
2023-05-06T09:46:17.870Z,431.00
2023-05-06T09:47:17.880Z,426.00
2023-05-06T09:48:17.893Z,423.00
2023-05-06T09:49:17.961Z,425.00
2023-05-06T09:50:17.962Z,426.00
2023-05-06T09:51:17.973Z,423.00
2023-05-06T09:52:17.950Z,433.00
2023-05-06T09:53:18.016Z,420.00
2023-05-06T09:54:18.006Z,447.00
2023-05-06T09:55:18.084Z,425.00
2023-05-06T09:56:18.122Z,422.00
2023-05-06T09:57:18.155Z,415.00
2023-05-06T09:58:18.168Z,420.00
2023-05-06T09:59:18.198Z,421.00
2023-05-06T10:00:18.346Z,420.00
2023-05-06T10:01:32.711Z,419.00
2023-05-06T10:02:19.430Z,417.00
2023-05-06T10:03:18.423Z,417.00
2023-05-06T10:04:18.395Z,426.00
2023-05-06T10:05:18.622Z,412.00
2023-05-06T10:06:18.270Z,414.00
2023-05-06T10:07:18.324Z,419.00
2023-05-06T10:08:18.273Z,418.00
2023-05-06T10:09:18.255Z,420.00
2023-05-06T10:10:18.252Z,416.00
2023-05-06T10:11:18.263Z,420.00
2023-05-06T10:12:18.218Z,419.00
2023-05-06T10:13:18.389Z,420.00
2023-05-06T10:14:18.285Z,422.00
2023-05-06T10:15:18.279Z,385.00
2023-05-06T10:16:18.346Z,412.00
2023-05-06T10:17:18.337Z,432.00
2023-05-06T10:18:18.350Z,415.00
2023-05-06T10:19:18.425Z,418.00
2023-05-06T10:20:18.476Z,419.00
2023-05-06T10:21:18.482Z,421.00
2023-05-06T10:22:18.525Z,422.00
2023-05-06T10:23:18.552Z,425.00
2023-05-06T10:24:18.560Z,424.00
2023-05-06T10:25:18.611Z,432.00
2023-05-06T10:26:18.665Z,425.00
2023-05-06T10:27:18.678Z,422.00
2023-05-06T10:28:20.899Z,427.00
2023-05-06T10:29:19.723Z,426.00
2023-05-06T10:30:18.702Z,426.00
2023-05-06T10:31:18.753Z,423.00
2023-05-06T10:32:18.718Z,423.00
2023-05-06T10:33:18.706Z,423.00
2023-05-06T10:34:18.769Z,424.00
2023-05-06T10:35:18.684Z,424.00
2023-05-06T10:36:18.678Z,446.00
2023-05-06T10:37:18.689Z,422.00
2023-05-06T10:38:18.721Z,426.00
2023-05-06T10:39:18.658Z,425.00
2023-05-06T10:40:18.662Z,424.00
2023-05-06T10:41:18.707Z,429.00
2023-05-06T10:42:18.736Z,439.00
2023-05-06T10:43:18.727Z,430.00
2023-05-06T10:44:18.760Z,426.00
2023-05-06T10:45:18.725Z,423.00
2023-05-06T10:46:18.752Z,424.00
2023-05-06T10:47:18.782Z,425.00
2023-05-06T10:48:18.783Z,427.00
2023-05-06T10:49:18.796Z,427.00
2023-05-06T10:50:18.808Z,426.00
2023-05-06T10:51:18.824Z,458.00
2023-05-06T10:52:18.935Z,416.00
2023-05-06T10:53:18.905Z,418.00
2023-05-06T10:54:18.952Z,417.00
2023-05-06T10:55:18.952Z,418.00
2023-05-06T10:56:18.965Z,414.00
2023-05-06T10:57:18.960Z,416.00
2023-05-06T10:58:18.969Z,417.00
2023-05-06T10:59:18.982Z,420.00
2023-05-06T11:00:19.046Z,421.00
2023-05-06T11:01:19.096Z,420.00
2023-05-06T11:02:19.308Z,419.00
2023-05-06T11:03:19.130Z,412.00
2023-05-06T11:04:19.119Z,426.00
2023-05-06T11:05:19.075Z,422.00
2023-05-06T11:06:19.118Z,423.00
2023-05-06T11:07:19.058Z,419.00
2023-05-06T11:08:19.053Z,421.00
2023-05-06T11:09:19.062Z,418.00
2023-05-06T11:10:19.056Z,417.00
2023-05-06T11:11:19.043Z,417.00
2023-05-06T11:12:19.026Z,418.00
2023-05-06T11:13:19.133Z,420.00
2023-05-06T11:14:18.984Z,422.00
2023-05-06T11:15:19.000Z,425.00
2023-05-06T11:16:19.038Z,429.00
2023-05-06T11:17:19.000Z,418.00
2023-05-06T11:18:19.005Z,414.00
2023-05-06T11:19:18.989Z,452.00
2023-05-06T11:20:19.055Z,427.00
2023-05-06T11:21:18.981Z,416.00
2023-05-06T11:22:19.001Z,417.00
2023-05-06T11:23:18.976Z,418.00
2023-05-06T11:24:18.937Z,418.00
2023-05-06T11:25:18.949Z,414.00
2023-05-06T11:26:18.934Z,389.00
2023-05-06T11:27:18.973Z,411.00
2023-05-06T11:28:18.943Z,413.00
2023-05-06T11:29:18.908Z,414.00
2023-05-06T11:30:18.943Z,443.00
2023-05-06T11:31:18.932Z,415.00
2023-05-06T11:32:18.912Z,475.00
2023-05-06T11:33:18.861Z,401.00
2023-05-06T11:34:18.879Z,412.00
2023-05-06T11:35:18.920Z,434.00
2023-05-06T11:36:18.897Z,419.00
2023-05-06T11:37:19.705Z,415.00
2023-05-06T11:38:18.852Z,412.00
2023-05-06T11:39:18.945Z,412.00
2023-05-06T11:40:18.859Z,416.00
2023-05-06T11:41:18.856Z,424.00
2023-05-06T11:42:18.868Z,422.00
2023-05-06T11:43:18.858Z,417.00
2023-05-06T11:44:18.784Z,429.00
2023-05-06T11:45:18.821Z,423.00
2023-05-06T11:46:18.865Z,474.00
2023-05-06T11:47:18.828Z,422.00
2023-05-06T11:48:18.819Z,419.00
2023-05-06T11:49:18.792Z,415.00
2023-05-06T11:50:18.843Z,422.00
2023-05-06T11:51:18.880Z,420.00
2023-05-06T11:52:18.921Z,414.00
2023-05-06T11:53:18.994Z,424.00
2023-05-06T11:54:19.066Z,424.00
2023-05-06T11:55:19.081Z,422.00
2023-05-06T11:56:19.073Z,500.00
2023-05-06T11:57:19.037Z,411.00
2023-05-06T11:58:19.068Z,409.00
2023-05-06T11:59:19.040Z,418.00
2023-05-06T12:00:19.077Z,414.00
2023-05-06T12:01:19.108Z,415.00
2023-05-06T12:02:19.214Z,419.00
2023-05-06T12:03:19.235Z,423.00
2023-05-06T12:04:19.161Z,398.00
2023-05-06T12:05:19.247Z,404.00
2023-05-06T12:06:19.345Z,409.00
2023-05-06T12:07:19.376Z,413.00
2023-05-06T12:08:26.790Z,415.00
2023-05-06T12:09:20.345Z,417.00
2023-05-06T12:10:19.367Z,400.00
2023-05-06T12:11:19.349Z,415.00
2023-05-06T12:12:19.366Z,422.00
2023-05-06T12:13:19.470Z,425.00
2023-05-06T12:14:19.323Z,414.00
2023-05-06T12:15:19.343Z,460.00
2023-05-06T12:16:19.363Z,402.00
2023-05-06T12:17:19.322Z,438.00
2023-05-06T12:18:19.305Z,422.00
2023-05-06T12:19:19.286Z,425.00
2023-05-06T12:20:19.289Z,422.00
2023-05-06T12:21:19.301Z,420.00
2023-05-06T12:22:19.370Z,422.00
2023-05-06T12:23:19.259Z,424.00
2023-05-06T12:24:19.294Z,430.00
2023-05-06T12:25:19.255Z,417.00
2023-05-06T12:26:19.248Z,426.00
2023-05-06T12:27:19.278Z,449.00
2023-05-06T12:28:19.342Z,429.00